x

Columbia River Bar - 20nm West Of Columbia River Mouth (46029) Wave Buoy

1:50pm - Sat 13th Feb 2016 All times are PST. -8 hours from GMT.

  • Sig Wave height 13.1ft
  • Swell Direction
  • Peak Period 14s
  • Average Period 7s
  • Wind
    29mph, 36mph gusts
  • Sea Temp 52°f
  • Air Temp 51°f
  • Sea Pressure 1020.1mb
  • Columbia River Bar - 20nm West Of Columbia River Mouth
  • Columbia River Bar - 20nm West Of Columbia River Mouth

More Historic Weather Station data

Upgrade to MSW Pro to gain access to the past 30 days of data for over 8000 Wavebouys and Weather Stations around the globe.

Join Pro

Comparision Forecast

View Surf forecast
   
Sat 02/13 1:50pm 13ft 14s 7s 29 36 mph 1020.1mb 52f 51f
12:50pm 11ft 14s 7s 29 38 mph 1020.6mb 52f 51f
11:50am 11ft 13s 8s 27 34 mph 1022.3mb 52f 51f
10:50am 11ft 14s 8s 25 29 mph 1023.5mb 52f 51f
9:50am 11ft 16s 8s 20 27 mph 1024.4mb 52f 51f
8:50am 11.5ft 15s 9s 20 22 mph 1025.1mb 52f 51f
7:50am 12.5ft 16s 9s 18 22 mph 1024.7mb 51f 51f
6:50am 11ft 15s 9s 16 20 mph 1025.2mb 51f 51f
5:50am 11ft 16s 8s 16 18 mph 1025.5mb 51f 51f
4:50am 13ft 15s 9s 13 18 mph 1025.5mb 51f 51f
3:50am 12ft 16s 8s 16 18 mph 1025.1mb 51f 51f
2:50am 12ft 13s 9s 18 22 mph 1024.9mb 52f 51f
1:50am 12ft 16s 9s 16 20 mph 1024.4mb 52f 51f
12:50am 12.5ft 16s 9s 18 25 mph 1023.8mb 52f 51f
Fri 02/12 11:50pm 11ft 14s 8s 18 22 mph 1023.7mb 52f 51f
10:50pm 10ft 15s 8s 20 25 mph 1023.2mb 52f 52f
9:50pm 12ft 15s 9s 20 25 mph 1023mb 52f 52f
8:50pm 13ft 16s 10s 18 20 mph 1022.8mb 52f 52f
7:50pm 11ft 16s 10s 16 18 mph 1022.8mb 52f 52f
6:50pm 13ft 16s 10s 16 18 mph 1022.7mb 52f 52f
5:50pm 13ft 16s 10s 13 16 mph 1022.2mb 52f 52f
4:50pm 12ft 16s 10s 13 16 mph 1021.7mb 52f 52f
3:50pm 12.5ft 16s 10s 13 20 mph 1021.5mb 52f 53f
2:50pm 12.5ft 17s 10s 11 16 mph 1021.1mb 52f 53f
1:50pm 11ft 16s 9s 13 18 mph 1020.9mb 52f 53f
12:50pm 11ft 17s 10s 13 18 mph 1021mb 52f 52f
11:50am 12.5ft 17s 10s 13 16 mph 1021mb 52f 53f
10:50am 13ft 17s 10s 13 16 mph 1021.1mb 52f 52f
9:50am 13ft 16s 10s 11 13 mph 1020.5mb 52f 52f
7:50am 14.5ft 17s 11s 4 9 mph 1018.8mb 52f 52f
6:50am 13.5ft 17s 10s 18 25 mph 1018.8mb 52f 52f
5:50am 14.5ft 16s 10s 16 20 mph 1018.1mb 52f 52f
4:50am 13.5ft 17s 10s 18 22 mph 1017.7mb 52f 52f
3:50am 15ft 15s 10s 18 22 mph 1017.8mb 52f 52f
2:50am 13ft 17s 9s 20 25 mph 1018.1mb 52f 53f
1:50am 12ft 17s 10s 20 25 mph 1017.7mb 52f 53f
12:50am 12.5ft 17s 11s 16 18 mph 1017.6mb 52f 53f
Thu 02/11 11:50pm 11.5ft 17s 10s 16 18 mph 1017.9mb 52f 53f
10:50pm 12ft 19s 10s 16 20 mph 1018mb 52f 53f
9:50pm 12.5ft 19s 10s 13 16 mph 1018.1mb 52f 53f
8:50pm 12.5ft 19s 10s 16 20 mph 1017.7mb 52f 53f
7:50pm 13.5ft 19s 11s 13 18 mph 1017.9mb 52f 53f
6:50pm 13.5ft 19s 11s 13 16 mph 1018.2mb 52f 53f
5:50pm 11.5ft 17s 10s 13 16 mph 1018mb 52f 53f
4:50pm 10.5ft 13s 9s 16 18 mph 1018mb 52f 53f
3:50pm 11.5ft 19s 10s 13 18 mph 1017.6mb 52f 53f
2:50pm 9ft 19s 9s 13 16 mph 1017.5mb 52f 53f
1:50pm 10ft 19s 10s 11 16 mph 1017.9mb 52f 53f
12:50pm 10ft 19s 10s 13 16 mph 1017.6mb 52f 54f
11:50am 9ft 19s 9s 13 16 mph 1017.9mb 52f 54f
10:50am 10.5ft 19s 11s 11 13 mph 1018.3mb 52f 54f
9:50am 10ft 19s 10s 4 9 mph 1018.4mb 52f 53f
8:50am 10ft 19s 10s 11 13 mph 1018mb 52f 53f
7:50am 9ft 19s 9s 13 18 mph 1018mb 52f 52f
6:50am 10ft 19s 10s 11 16 mph 1018.3mb 52f 53f
5:50am 11ft 21s 11s 11 16 mph 1019.1mb 52f 52f
4:50am 9ft 21s 9s 4 11 mph 1020.4mb 52f 52f
3:50am 9ft 21s 9s 2 9 mph 1020.4mb 52f 52f
2:50am 9ft 21s 9s 7 11 mph 1020.6mb 52f 52f
1:50am 8ft 21s 8s 13 18 mph 1020.9mb 51f 52f
12:50am 7.5ft 11s 8s 13 18 mph 1021.7mb 51f 52f
Wed 02/10 11:50pm 7.5ft 10s 8s 13 16 mph 1022.4mb 51f 51f
10:50pm 6.5ft 11s 7s 9 11 mph 1023.9mb 51f 52f
9:50pm 7ft 10s 8s 9 11 mph 1024mb 51f 51f
8:50pm 6.5ft 12s 7s  -  2 mph 1024.5mb 51f 52f
7:50pm 7ft 11s 7s  -  2 mph 1025.3mb 51f 52f
6:50pm 7.5ft 11s 7s 7 9 mph 1025.9mb 52f 52f
5:50pm 8ft 11s 7s 2 7 mph 1025.4mb 52f 52f
4:50pm 7.5ft 11s 7s 9 13 mph 1025.4mb 52f 53f
3:50pm 7ft 6s 6s 13 16 mph 1024.6mb 52f 53f
2:50pm 7.5ft 11s 6s 13 20 mph 1024mb 52f 53f
1:50pm 7.5ft 6s 6s 16 22 mph 1023.2mb 52f 53f
12:50pm 8ft 11s 6s 18 20 mph 1022.9mb 52f 53f
11:50am 8ft 11s 6s 20 25 mph 1022.4mb 51f 53f
10:50am 8ft 10s 6s 20 25 mph 1022.1mb 51f 53f
9:50am 7ft 11s 6s 18 22 mph 1021.1mb 51f 53f
8:50am 7ft 11s 6s 20 22 mph 1020.1mb 51f 52f
7:50am 7ft 11s 7s 18 22 mph 1019.6mb 51f 52f
6:50am 6ft 11s 6s 16 20 mph 1019.4mb 51f 52f
5:50am 5.5ft 11s 7s 11 13 mph 1019.1mb 52f 52f
4:50am 6ft 11s 7s 11 13 mph 1018.3mb 52f 52f
3:50am 5.5ft 12s 7s 11 13 mph 1018.5mb 52f 52f
2:50am 5.5ft 13s 8s 11 13 mph 1018.2mb 52f 51f
1:50am 6ft 13s 8s 9 13 mph 1018.5mb 52f 51f
12:50am 5.5ft 13s 8s 11 13 mph 1019.6mb 52f 52f
Tue 02/09 11:50pm 6ft 13s 9s 11 13 mph 1019.8mb 52f 52f
10:50pm 6ft 12s 9s 9 13 mph 1019.7mb 52f 52f